Woodside, California
Current Conditions -  °F | °C
As of 11:10 PM on Friday 19 Dec 2014 (Local Time) from KSQL Reporting Station
Overcast Overcast  
Wind Chill: 55°   Ceiling: 2500
Heat Index: 55°   Visibility: 9mi
Dew Point: 55°   Wind: 0mph
Humidity: 100%   Direction: NA
Pressure: 30.16"   Gusts: NA
Location:  37.4497°N, 122.329°W
Report Text: KSQL 200710Z AUTO 00000KT 9SM BKN025 BKN036 OVC050 13/13 A3016 RMK AO2
Loading
Personal Weather Stations






























Interactive Weather Map New forecast layout! Learn more

10-Day Weather Forecast

Advertisements
Track Severe Weather on mobile